MSC Pamela — 3EBT6 — position and weather

sailwx.info

Track history (hours):
 
Tides and Currents Weather Stations Pressure Air Temp Water Temp Dewpoint Dewpoint Depression Visibility Wind Speed Wind Dir Waves Ship Positions

MSC Pamela

Last reported at 2017-Oct-26 05:42 UTC. Time now 2017-Nov-20 04:13 UTC.
Position N 30°52' E 032°19'.
Warning: this ship's position is 24 days out of date.

Length 337 m; draft 14.8 m.

Type: Ship (hazmat cat A). MMSI: 371228000.

Date/timePositionNaut miles runAvg speedWind from/ knotsBaromVisibWave heightAir tempDewpointWater temp
2017-Oct-26 05:42N 30°52' E 032°19'4 8.7
2017-Oct-26 05:14N 30°56' E 032°19'3 9.0
2017-Oct-26 04:55N 30°59' E 032°19'  
2017-Oct-23 08:32N 36°15' E 014°46'016.5
2017-Oct-23 08:30N 36°15' E 014°46'816.6
2017-Oct-23 08:00N 36°18' E 014°36'816.6
2017-Oct-23 07:30N 36°20' E 014°26'816.6
2017-Oct-23 07:00N 36°23' E 014°16'816.2
2017-Oct-23 06:30N 36°26' E 014°07'816.0
2017-Oct-23 06:00N 36°28' E 013°57'815.8
2017-Oct-23 05:30N 36°31' E 013°48'27415.9
2017-Oct-22 12:18N 38°30' E 008°37'616.7
2017-Oct-22 11:58N 38°32' E 008°31'33515.7
2017-Oct-21 14:35N 41°17' E 002°11'111.0
2017-Oct-21 14:30N 41°18' E 002°10'1 1.1
2017-Oct-21 13:21N 41°18' E 002°09'0 0.0
2017-Oct-21 12:57N 41°18' E 002°09'0 0.0
2017-Oct-21 12:27N 41°18' E 002°09'0 0.0
2017-Oct-21 11:57N 41°18' E 002°09'0 0.0
2017-Oct-21 11:27N 41°18' E 002°09'0 0.0
2017-Oct-21 10:57N 41°18' E 002°09'0 0.0
2017-Oct-21 10:27N 41°18' E 002°09'0 0.0
2017-Oct-21 09:57N 41°18' E 002°09'0 0.0
2017-Oct-21 09:30N 41°18' E 002°09'0 0.0
2017-Oct-21 09:00N 41°18' E 002°09'0 0.0
2017-Oct-21 08:30N 41°18' E 002°09'0 0.0
2017-Oct-21 08:00N 41°18' E 002°09'0 0.0
2017-Oct-21 07:30N 41°18' E 002°09'0 0.0
2017-Oct-21 03:14N 41°18' E 002°09'0 0.0
2017-Oct-21 02:26N 41°18' E 002°09'0 0.0
2017-Oct-21 01:17N 41°18' E 002°09'0 0.0
2017-Oct-21 00:59N 41°18' E 002°09'0 0.0
2017-Oct-20 23:20N 41°18' E 002°09'0 0.0
2017-Oct-20 22:59N 41°18' E 002°09'0 0.0
2017-Oct-20 22:29N 41°18' E 002°09'0 0.0
2017-Oct-20 21:50N 41°18' E 002°09'0 0.0
2017-Oct-20 21:17N 41°18' E 002°09'0 0.0
2017-Oct-20 20:50N 41°18' E 002°09'0 0.0
2017-Oct-20 20:20N 41°18' E 002°09'0 0.0
2017-Oct-20 19:50N 41°18' E 002°09'0 0.0
2017-Oct-20 18:38N 41°18' E 002°09'0 0.0
2017-Oct-20 17:05N 41°18' E 002°09'0 0.0
2017-Oct-20 16:38N 41°18' E 002°09'0 0.0
2017-Oct-20 16:05N 41°18' E 002°09'0 0.1
2017-Oct-20 15:50N 41°18' E 002°09'0 0.1
2017-Oct-20 15:23N 41°18' E 002°09'0 0.0
2017-Oct-20 12:05N 41°18' E 002°09'0 0.0
2017-Oct-20 08:53N 41°18' E 002°09'0 0.0
2017-Oct-20 08:23N 41°18' E 002°09'0 0.0
2017-Oct-20 06:38N 41°18' E 002°09'0 0.0
2017-Oct-20 06:14N 41°18' E 002°09'0 0.1
2017-Oct-20 05:59N 41°18' E 002°09'1 0.2
2017-Oct-20 00:59N 41°19' E 002°10'2 4.8
2017-Oct-20 00:30N 41°17' E 002°11'0 0.4
2017-Oct-19 23:59N 41°17' E 002°12'0 0.3
2017-Oct-19 23:30N 41°17' E 002°12'0 0.2
2017-Oct-19 23:00N 41°17' E 002°12'0 0.3
2017-Oct-19 22:25N 41°16' E 002°12'0 0.4
2017-Oct-19 21:38N 41°16' E 002°12'0 0.4
2017-Oct-19 21:14N 41°16' E 002°12'0 0.4
2017-Oct-19 21:00N 41°16' E 002°12'1 0.4
2017-Oct-19 19:39N 41°15' E 002°13'2 1.6
2017-Oct-19 18:12N 41°13' E 002°13'2 8.7
2017-Oct-19 18:00N 41°12' E 002°13'713.2
2017-Oct-19 17:30N 41°06' E 002°08'816.3
2017-Oct-19 17:00N 40°59' E 002°03'20315.7
2017-Oct-19 04:07N 38°03' W 000°06'213.0
2017-Oct-19 04:00N 38°01' W 000°07'812.8
2017-Oct-19 03:21N 37°54' W 000°13'512.7
2017-Oct-19 02:58N 37°50' W 000°16'612.6
2017-Oct-19 02:30N 37°45' W 000°20'612.6
2017-Oct-19 02:00N 37°40' W 000°25'612.3
2017-Oct-19 01:30N 37°35' W 000°29'612.2
2017-Oct-19 01:00N 37°30' W 000°34'612.9
2017-Oct-19 00:30N 37°26' W 000°40'613.1
2017-Oct-19 00:00N 37°21' W 000°46'713.4
2017-Oct-18 23:30N 37°17' W 000°52'713.5
2017-Oct-18 23:00N 37°13' W 000°59'813.7
2017-Oct-18 22:27N 37°08' W 001°06'20612.6
2017-Oct-18 06:02N 36°01' W 005°09'113.6
2017-Oct-18 05:59N 36°01' W 005°10'613.5
2017-Oct-18 05:30N 35°60' W 005°18'714.3
2017-Oct-18 05:01N 35°58' W 005°26'815.4
2017-Oct-18 04:29N 35°55' W 005°36'1015.0
2017-Oct-18 03:50N 35°54' W 005°48'514.3
2017-Oct-18 03:31N 35°53' W 005°53'714.2
2017-Oct-18 03:00N 35°53' W 006°02'813.7
2017-Oct-18 02:25N 35°53' W 006°12'  
Track history (hours):
 
Tides and Currents Weather Stations Pressure Air Temp Water Temp Dewpoint Dewpoint Depression Visibility Wind Speed Wind Dir Waves Ship Positions

MSC Pamela

Last reported at 2017-Oct-26 05:42 UTC. Time now 2017-Nov-20 04:13 UTC.
Position N 30°52' E 032°19'.
Warning: this ship's position is 24 days out of date.

Length 337 m; draft 14.8 m.

Type: Ship (hazmat cat A). MMSI: 371228000.

Date/timePositionNaut miles runAvg speedWind from/ knotsBaromVisibWave heightAir tempDewpointWater temp
2017-Oct-26 05:42N 30°52' E 032°19'4 8.7
2017-Oct-26 05:14N 30°56' E 032°19'3 9.0
2017-Oct-26 04:55N 30°59' E 032°19'  
2017-Oct-23 08:32N 36°15' E 014°46'016.5
2017-Oct-23 08:30N 36°15' E 014°46'816.6
2017-Oct-23 08:00N 36°18' E 014°36'816.6
2017-Oct-23 07:30N 36°20' E 014°26'816.6
2017-Oct-23 07:00N 36°23' E 014°16'816.2
2017-Oct-23 06:30N 36°26' E 014°07'816.0
2017-Oct-23 06:00N 36°28' E 013°57'815.8
2017-Oct-23 05:30N 36°31' E 013°48'27415.9
2017-Oct-22 12:18N 38°30' E 008°37'616.7
2017-Oct-22 11:58N 38°32' E 008°31'33515.7
2017-Oct-21 14:35N 41°17' E 002°11'111.0
2017-Oct-21 14:30N 41°18' E 002°10'1 1.1
2017-Oct-21 13:21N 41°18' E 002°09'0 0.0
2017-Oct-21 12:57N 41°18' E 002°09'0 0.0
2017-Oct-21 12:27N 41°18' E 002°09'0 0.0
2017-Oct-21 11:57N 41°18' E 002°09'0 0.0
2017-Oct-21 11:27N 41°18' E 002°09'0 0.0
2017-Oct-21 10:57N 41°18' E 002°09'0 0.0
2017-Oct-21 10:27N 41°18' E 002°09'0 0.0
2017-Oct-21 09:57N 41°18' E 002°09'0 0.0
2017-Oct-21 09:30N 41°18' E 002°09'0 0.0
2017-Oct-21 09:00N 41°18' E 002°09'0 0.0
2017-Oct-21 08:30N 41°18' E 002°09'0 0.0
2017-Oct-21 08:00N 41°18' E 002°09'0 0.0
2017-Oct-21 07:30N 41°18' E 002°09'0 0.0
2017-Oct-21 03:14N 41°18' E 002°09'0 0.0
2017-Oct-21 02:26N 41°18' E 002°09'0 0.0
2017-Oct-21 01:17N 41°18' E 002°09'0 0.0
2017-Oct-21 00:59N 41°18' E 002°09'0 0.0
2017-Oct-20 23:20N 41°18' E 002°09'0 0.0
2017-Oct-20 22:59N 41°18' E 002°09'0 0.0
2017-Oct-20 22:29N 41°18' E 002°09'0 0.0
2017-Oct-20 21:50N 41°18' E 002°09'0 0.0
2017-Oct-20 21:17N 41°18' E 002°09'0 0.0
2017-Oct-20 20:50N 41°18' E 002°09'0 0.0
2017-Oct-20 20:20N 41°18' E 002°09'0 0.0
2017-Oct-20 19:50N 41°18' E 002°09'0 0.0
2017-Oct-20 18:38N 41°18' E 002°09'0 0.0
2017-Oct-20 17:05N 41°18' E 002°09'0 0.0
2017-Oct-20 16:38N 41°18' E 002°09'0 0.0
2017-Oct-20 16:05N 41°18' E 002°09'0 0.1
2017-Oct-20 15:50N 41°18' E 002°09'0 0.1
2017-Oct-20 15:23N 41°18' E 002°09'0 0.0
2017-Oct-20 12:05N 41°18' E 002°09'0 0.0
2017-Oct-20 08:53N 41°18' E 002°09'0 0.0
2017-Oct-20 08:23N 41°18' E 002°09'0 0.0
2017-Oct-20 06:38N 41°18' E 002°09'0 0.0
2017-Oct-20 06:14N 41°18' E 002°09'0 0.1
2017-Oct-20 05:59N 41°18' E 002°09'1 0.2
2017-Oct-20 00:59N 41°19' E 002°10'2 4.8
2017-Oct-20 00:30N 41°17' E 002°11'0 0.4
2017-Oct-19 23:59N 41°17' E 002°12'0 0.3
2017-Oct-19 23:30N 41°17' E 002°12'0 0.2
2017-Oct-19 23:00N 41°17' E 002°12'0 0.3
2017-Oct-19 22:25N 41°16' E 002°12'0 0.4
2017-Oct-19 21:38N 41°16' E 002°12'0 0.4
2017-Oct-19 21:14N 41°16' E 002°12'0 0.4
2017-Oct-19 21:00N 41°16' E 002°12'1 0.4
2017-Oct-19 19:39N 41°15' E 002°13'2 1.6
2017-Oct-19 18:12N 41°13' E 002°13'2 8.7
2017-Oct-19 18:00N 41°12' E 002°13'713.2
2017-Oct-19 17:30N 41°06' E 002°08'816.3
2017-Oct-19 17:00N 40°59' E 002°03'20315.7
2017-Oct-19 04:07N 38°03' W 000°06'213.0
2017-Oct-19 04:00N 38°01' W 000°07'812.8
2017-Oct-19 03:21N 37°54' W 000°13'512.7
2017-Oct-19 02:58N 37°50' W 000°16'612.6
2017-Oct-19 02:30N 37°45' W 000°20'612.6
2017-Oct-19 02:00N 37°40' W 000°25'612.3
2017-Oct-19 01:30N 37°35' W 000°29'612.2
2017-Oct-19 01:00N 37°30' W 000°34'612.9
2017-Oct-19 00:30N 37°26' W 000°40'613.1
2017-Oct-19 00:00N 37°21' W 000°46'713.4
2017-Oct-18 23:30N 37°17' W 000°52'713.5
2017-Oct-18 23:00N 37°13' W 000°59'813.7
2017-Oct-18 22:27N 37°08' W 001°06'20612.6
2017-Oct-18 06:02N 36°01' W 005°09'113.6
2017-Oct-18 05:59N 36°01' W 005°10'613.5
2017-Oct-18 05:30N 35°60' W 005°18'714.3
2017-Oct-18 05:01N 35°58' W 005°26'815.4
2017-Oct-18 04:29N 35°55' W 005°36'1015.0
2017-Oct-18 03:50N 35°54' W 005°48'514.3
2017-Oct-18 03:31N 35°53' W 005°53'714.2
2017-Oct-18 03:00N 35°53' W 006°02'813.7
2017-Oct-18 02:25N 35°53' W 006°12'  

Dump ship's entire track history